メルボルン の空港の天気 - METARとTAF

メルボルン空港 ( YMML / MEL ) - オーストラリア ビクトリア州、Melbourne Airport
飛行場実況気象(Metar)
観測時間02/18 01:30 AEDT (02/17 14:30 UTC)
風向・風速南南西 7m/s
視程10km以上
天気現象
なし
気温21℃
湿度56%
気圧1008hPa
METARYMML 171430Z 21013KT CAVOK 21/12 Q1008 NOSIG
過去の天気等 Google飛行場航空写真 Wunderground天気予報

過去48時間のMETAR

飛行場予報(TAF)
発表時間: 2/17 22:22 AEDT (2/17 11:22 UTC)
予報対象時間: 17日23時 AEDT ~ 19日5時 AEDT
風向・風速不定 2m/s
視程10km以上
なし
18日5時 AEDT ~ 18日7時 AEDT に徐々に
風向・風速不定 2m/s
視程10km以上
少しの雲 雲底高度 300m
18日9時 AEDT ~ 18日11時 AEDT に徐々に
風向・風速西南西 4m/s
視程10km以上
天気現象弱いしゅう雨
少しの雲 雲底高度 610m
18日13時 AEDT から
風向・風速南南西 7m/s
視程10km以上
天気現象弱いしゅう雨
全天の4割程度の雲 雲底高度 610m
18日19時 AEDT から
風向・風速南 8m/s
視程10km以上
少しの雲 雲底高度 760m
全天の4割程度の雲 雲底高度 1220m
18日23時 AEDT から
風向・風速西南西 4m/s
視程10km以上
全天の4割程度の雲 雲底高度 1220m
TAF YMML 171122Z 1712/1818 VRB04KT CAVOK
BECMG 1718/1720 VRB04KT 9999 FEW010
BECMG 1722/1724 25008KT 9999 -SHRA FEW020
FM180200 20014KT 9999 -SHRA SCT020
FM180800 19015KT 9999 FEW025 SCT040
FM181200 24008KT 9999 SCT040